sensor_id;sensor_type;location;lat;lon;timestamp;P1;durP1;ratioP1;P2;durP2;ratioP2
30299;SDS011;17110;52.602;12.998;2023-04-06T00:01:30;6.77;;;4.77;;
30299;SDS011;17110;52.602;12.998;2023-04-06T00:03:55;6.95;;;4.97;;
30299;SDS011;17110;52.602;12.998;2023-04-06T00:06:21;5.90;;;5.03;;
30299;SDS011;17110;52.602;12.998;2023-04-06T00:08:50;6.47;;;4.65;;
30299;SDS011;17110;52.602;12.998;2023-04-06T00:11:15;6.60;;;4.57;;
30299;SDS011;17110;52.602;12.998;2023-04-06T00:13:41;7.05;;;5.05;;
30299;SDS011;17110;52.602;12.998;2023-04-06T00:16:07;7.85;;;4.63;;
30299;SDS011;17110;52.602;12.998;2023-04-06T00:18:33;7.40;;;5.18;;
30299;SDS011;17110;52.602;12.998;2023-04-06T00:20:58;8.02;;;4.93;;
30299;SDS011;17110;52.602;12.998;2023-04-06T00:23:24;5.95;;;4.60;;
30299;SDS011;17110;52.602;12.998;2023-04-06T00:25:50;5.70;;;4.68;;
30299;SDS011;17110;52.602;12.998;2023-04-06T00:28:16;5.50;;;4.50;;
30299;SDS011;17110;52.602;12.998;2023-04-06T00:30:42;5.40;;;4.35;;
30299;SDS011;17110;52.602;12.998;2023-04-06T00:33:07;6.95;;;4.55;;
30299;SDS011;17110;52.602;12.998;2023-04-06T00:35:33;8.33;;;4.70;;
30299;SDS011;17110;52.602;12.998;2023-04-06T00:37:59;6.35;;;4.55;;
30299;SDS011;17110;52.602;12.998;2023-04-06T00:40:25;7.35;;;4.55;;
30299;SDS011;17110;52.602;12.998;2023-04-06T00:42:53;6.40;;;4.80;;
30299;SDS011;17110;52.602;12.998;2023-04-06T00:45:19;7.18;;;4.85;;
30299;SDS011;17110;52.602;12.998;2023-04-06T00:47:48;5.17;;;4.60;;
30299;SDS011;17110;52.602;12.998;2023-04-06T00:50:14;7.47;;;4.75;;
30299;SDS011;17110;52.602;12.998;2023-04-06T00:52:40;7.75;;;5.20;;
30299;SDS011;17110;52.602;12.998;2023-04-06T00:55:06;6.40;;;5.03;;
30299;SDS011;17110;52.602;12.998;2023-04-06T00:57:32;6.47;;;5.20;;
30299;SDS011;17110;52.602;12.998;2023-04-06T00:59:57;7.38;;;5.07;;
30299;SDS011;17110;52.602;12.998;2023-04-06T01:02:24;6.03;;;5.05;;
30299;SDS011;17110;52.602;12.998;2023-04-06T01:04:51;7.30;;;5.53;;
30299;SDS011;17110;52.602;12.998;2023-04-06T01:07:17;6.20;;;5.23;;
30299;SDS011;17110;52.602;12.998;2023-04-06T01:09:43;7.30;;;5.27;;
30299;SDS011;17110;52.602;12.998;2023-04-06T01:12:08;6.77;;;5.50;;
30299;SDS011;17110;52.602;12.998;2023-04-06T01:14:34;6.47;;;5.40;;
30299;SDS011;17110;52.602;12.998;2023-04-06T01:17:00;6.78;;;5.75;;
30299;SDS011;17110;52.602;12.998;2023-04-06T01:19:26;7.13;;;5.47;;
30299;SDS011;17110;52.602;12.998;2023-04-06T01:21:52;8.17;;;5.87;;
30299;SDS011;17110;52.602;12.998;2023-04-06T01:24:18;9.07;;;6.35;;
30299;SDS011;17110;52.602;12.998;2023-04-06T01:26:44;7.18;;;6.18;;
30299;SDS011;17110;52.602;12.998;2023-04-06T01:29:10;8.63;;;6.03;;
30299;SDS011;17110;52.602;12.998;2023-04-06T01:31:36;8.97;;;6.30;;
30299;SDS011;17110;52.602;12.998;2023-04-06T01:34:02;7.32;;;5.63;;
30299;SDS011;17110;52.602;12.998;2023-04-06T01:36:28;8.15;;;5.68;;
30299;SDS011;17110;52.602;12.998;2023-04-06T01:38:53;7.50;;;5.67;;
30299;SDS011;17110;52.602;12.998;2023-04-06T01:41:19;9.47;;;5.67;;
30299;SDS011;17110;52.602;12.998;2023-04-06T01:43:46;7.72;;;5.72;;
30299;SDS011;17110;52.602;12.998;2023-04-06T01:46:13;7.50;;;5.97;;
30299;SDS011;17110;52.602;12.998;2023-04-06T01:48:39;5.97;;;5.20;;
30299;SDS011;17110;52.602;12.998;2023-04-06T01:51:05;7.70;;;5.75;;
30299;SDS011;17110;52.602;12.998;2023-04-06T01:53:31;7.20;;;5.55;;
30299;SDS011;17110;52.602;12.998;2023-04-06T01:55:56;7.90;;;6.13;;
30299;SDS011;17110;52.602;12.998;2023-04-06T01:58:22;7.77;;;5.97;;
30299;SDS011;17110;52.602;12.998;2023-04-06T02:00:48;8.20;;;6.13;;
30299;SDS011;17110;52.602;12.998;2023-04-06T02:03:14;8.35;;;6.15;;
30299;SDS011;17110;52.602;12.998;2023-04-06T02:05:40;8.27;;;6.35;;
30299;SDS011;17110;52.602;12.998;2023-04-06T02:08:11;8.13;;;6.53;;
30299;SDS011;17110;52.602;12.998;2023-04-06T02:10:37;7.53;;;5.80;;
30299;SDS011;17110;52.602;12.998;2023-04-06T02:13:02;6.67;;;5.20;;
30299;SDS011;17110;52.602;12.998;2023-04-06T02:15:28;7.40;;;6.18;;
30299;SDS011;17110;52.602;12.998;2023-04-06T02:17:54;7.00;;;5.60;;
30299;SDS011;17110;52.602;12.998;2023-04-06T02:20:20;7.30;;;6.30;;
30299;SDS011;17110;52.602;12.998;2023-04-06T02:22:45;8.73;;;7.10;;
30299;SDS011;17110;52.602;12.998;2023-04-06T02:25:11;7.82;;;6.40;;
30299;SDS011;17110;52.602;12.998;2023-04-06T02:27:37;7.63;;;6.40;;
30299;SDS011;17110;52.602;12.998;2023-04-06T02:30:03;7.43;;;6.63;;
30299;SDS011;17110;52.602;12.998;2023-04-06T02:32:31;10.18;;;7.15;;
30299;SDS011;17110;52.602;12.998;2023-04-06T02:35:00;11.10;;;8.10;;
30299;SDS011;17110;52.602;12.998;2023-04-06T02:37:25;8.30;;;7.17;;
30299;SDS011;17110;52.602;12.998;2023-04-06T02:39:52;8.27;;;6.90;;
30299;SDS011;17110;52.602;12.998;2023-04-06T02:42:19;8.20;;;6.50;;
30299;SDS011;17110;52.602;12.998;2023-04-06T02:44:47;8.63;;;7.03;;
30299;SDS011;17110;52.602;12.998;2023-04-06T02:47:13;9.77;;;6.43;;
30299;SDS011;17110;52.602;12.998;2023-04-06T02:49:41;8.32;;;6.90;;
30299;SDS011;17110;52.602;12.998;2023-04-06T02:52:07;8.48;;;6.97;;
30299;SDS011;17110;52.602;12.998;2023-04-06T02:54:33;9.65;;;7.22;;
30299;SDS011;17110;52.602;12.998;2023-04-06T02:56:59;8.18;;;6.68;;
30299;SDS011;17110;52.602;12.998;2023-04-06T02:59:25;10.95;;;7.07;;
30299;SDS011;17110;52.602;12.998;2023-04-06T03:01:53;11.32;;;7.40;;
30299;SDS011;17110;52.602;12.998;2023-04-06T03:04:19;9.75;;;7.45;;
30299;SDS011;17110;52.602;12.998;2023-04-06T03:06:50;10.35;;;7.30;;
30299;SDS011;17110;52.602;12.998;2023-04-06T03:09:16;14.20;;;6.93;;
30299;SDS011;17110;52.602;12.998;2023-04-06T03:11:42;10.83;;;6.50;;
30299;SDS011;17110;52.602;12.998;2023-04-06T03:14:10;12.30;;;7.00;;
30299;SDS011;17110;52.602;12.998;2023-04-06T03:16:36;8.55;;;6.88;;
30299;SDS011;17110;52.602;12.998;2023-04-06T03:19:02;8.37;;;6.90;;
30299;SDS011;17110;52.602;12.998;2023-04-06T03:21:28;8.77;;;6.83;;
30299;SDS011;17110;52.602;12.998;2023-04-06T03:23:54;10.35;;;7.03;;
30299;SDS011;17110;52.602;12.998;2023-04-06T03:26:20;9.82;;;7.28;;
30299;SDS011;17110;52.602;12.998;2023-04-06T03:28:49;8.07;;;7.13;;
30299;SDS011;17110;52.602;12.998;2023-04-06T03:31:15;9.15;;;7.22;;
30299;SDS011;17110;52.602;12.998;2023-04-06T03:33:41;10.80;;;6.83;;
30299;SDS011;17110;52.602;12.998;2023-04-06T03:36:12;10.02;;;7.60;;
30299;SDS011;17110;52.602;12.998;2023-04-06T03:38:38;11.23;;;7.95;;
30299;SDS011;17110;52.602;12.998;2023-04-06T03:41:03;8.77;;;7.65;;
30299;SDS011;17110;52.602;12.998;2023-04-06T03:43:29;9.00;;;7.60;;
30299;SDS011;17110;52.602;12.998;2023-04-06T03:45:55;9.75;;;7.63;;
30299;SDS011;17110;52.602;12.998;2023-04-06T03:48:21;8.88;;;7.50;;
30299;SDS011;17110;52.602;12.998;2023-04-06T03:50:47;10.77;;;8.07;;
30299;SDS011;17110;52.602;12.998;2023-04-06T03:53:12;9.87;;;7.23;;
30299;SDS011;17110;52.602;12.998;2023-04-06T03:55:38;7.67;;;6.87;;
30299;SDS011;17110;52.602;12.998;2023-04-06T03:58:07;9.27;;;7.82;;
30299;SDS011;17110;52.602;12.998;2023-04-06T04:00:33;10.00;;;7.40;;
30299;SDS011;17110;52.602;12.998;2023-04-06T04:03:01;10.90;;;8.13;;
30299;SDS011;17110;52.602;12.998;2023-04-06T04:05:29;10.85;;;8.77;;
30299;SDS011;17110;52.602;12.998;2023-04-06T04:07:55;10.70;;;8.60;;
30299;SDS011;17110;52.602;12.998;2023-04-06T04:10:29;12.07;;;9.45;;
30299;SDS011;17110;52.602;12.998;2023-04-06T04:12:57;12.18;;;9.07;;
30299;SDS011;17110;52.602;12.998;2023-04-06T04:15:28;15.63;;;10.02;;
30299;SDS011;17110;52.602;12.998;2023-04-06T04:17:54;11.90;;;9.93;;
30299;SDS011;17110;52.602;12.998;2023-04-06T04:20:20;11.53;;;9.80;;
30299;SDS011;17110;52.602;12.998;2023-04-06T04:22:49;11.15;;;10.00;;
30299;SDS011;17110;52.602;12.998;2023-04-06T04:25:17;12.40;;;10.70;;
30299;SDS011;17110;52.602;12.998;2023-04-06T04:27:45;12.68;;;10.52;;
30299;SDS011;17110;52.602;12.998;2023-04-06T04:30:11;13.98;;;10.30;;
30299;SDS011;17110;52.602;12.998;2023-04-06T04:32:37;13.40;;;10.73;;
30299;SDS011;17110;52.602;12.998;2023-04-06T04:35:03;19.05;;;11.10;;
30299;SDS011;17110;52.602;12.998;2023-04-06T04:37:29;13.88;;;11.00;;
30299;SDS011;17110;52.602;12.998;2023-04-06T04:39:54;14.23;;;11.40;;
30299;SDS011;17110;52.602;12.998;2023-04-06T04:42:22;14.40;;;11.50;;
30299;SDS011;17110;52.602;12.998;2023-04-06T04:44:50;15.30;;;11.63;;
30299;SDS011;17110;52.602;12.998;2023-04-06T04:47:16;13.20;;;11.80;;
30299;SDS011;17110;52.602;12.998;2023-04-06T04:49:55;15.10;;;12.20;;
30299;SDS011;17110;52.602;12.998;2023-04-06T04:52:21;14.73;;;11.70;;
30299;SDS011;17110;52.602;12.998;2023-04-06T04:54:47;12.52;;;11.23;;
30299;SDS011;17110;52.602;12.998;2023-04-06T04:57:13;14.07;;;11.32;;
30299;SDS011;17110;52.602;12.998;2023-04-06T04:59:39;13.55;;;11.18;;
30299;SDS011;17110;52.602;12.998;2023-04-06T05:02:10;13.02;;;10.75;;
30299;SDS011;17110;52.602;12.998;2023-04-06T05:04:38;18.63;;;13.85;;
30299;SDS011;17110;52.602;12.998;2023-04-06T05:07:07;55.67;;;17.65;;
30299;SDS011;17110;52.602;12.998;2023-04-06T05:09:33;25.83;;;19.60;;
30299;SDS011;17110;52.602;12.998;2023-04-06T05:12:00;29.13;;;19.77;;
30299;SDS011;17110;52.602;12.998;2023-04-06T05:14:28;28.25;;;22.02;;
30299;SDS011;17110;52.602;12.998;2023-04-06T05:16:56;18.50;;;15.38;;
30299;SDS011;17110;52.602;12.998;2023-04-06T05:19:22;18.97;;;14.40;;
30299;SDS011;17110;52.602;12.998;2023-04-06T05:21:48;16.33;;;12.67;;
30299;SDS011;17110;52.602;12.998;2023-04-06T05:24:16;15.98;;;12.98;;
30299;SDS011;17110;52.602;12.998;2023-04-06T05:26:42;44.40;;;34.28;;
30299;SDS011;17110;52.602;12.998;2023-04-06T05:29:15;89.90;;;67.90;;
30299;SDS011;17110;52.602;12.998;2023-04-06T05:31:45;91.83;;;74.87;;
30299;SDS011;17110;52.602;12.998;2023-04-06T05:34:12;100.43;;;79.57;;
30299;SDS011;17110;52.602;12.998;2023-04-06T05:36:45;64.53;;;54.35;;
30299;SDS011;17110;52.602;12.998;2023-04-06T05:39:14;60.70;;;48.53;;
30299;SDS011;17110;52.602;12.998;2023-04-06T05:41:43;44.92;;;37.63;;
30299;SDS011;17110;52.602;12.998;2023-04-06T05:44:08;37.17;;;32.87;;
30299;SDS011;17110;52.602;12.998;2023-04-06T05:46:38;33.20;;;28.75;;
30299;SDS011;17110;52.602;12.998;2023-04-06T05:49:04;23.45;;;20.85;;
30299;SDS011;17110;52.602;12.998;2023-04-06T05:51:33;21.17;;;18.80;;
30299;SDS011;17110;52.602;12.998;2023-04-06T05:54:07;19.42;;;17.15;;
30299;SDS011;17110;52.602;12.998;2023-04-06T05:56:32;13.77;;;11.57;;
30299;SDS011;17110;52.602;12.998;2023-04-06T05:59:00;11.45;;;9.07;;
30299;SDS011;17110;52.602;12.998;2023-04-06T06:01:26;11.00;;;8.82;;
30299;SDS011;17110;52.602;12.998;2023-04-06T06:04:02;11.20;;;8.70;;
30299;SDS011;17110;52.602;12.998;2023-04-06T06:06:31;10.20;;;9.13;;
30299;SDS011;17110;52.602;12.998;2023-04-06T06:09:02;12.05;;;7.88;;
30299;SDS011;17110;52.602;12.998;2023-04-06T06:11:28;10.82;;;7.63;;
30299;SDS011;17110;52.602;12.998;2023-04-06T06:13:55;10.67;;;8.20;;
30299;SDS011;17110;52.602;12.998;2023-04-06T06:16:21;8.90;;;7.35;;
30299;SDS011;17110;52.602;12.998;2023-04-06T06:18:47;9.85;;;7.55;;
30299;SDS011;17110;52.602;12.998;2023-04-06T06:21:12;10.05;;;8.05;;
30299;SDS011;17110;52.602;12.998;2023-04-06T06:23:38;9.32;;;7.50;;
30299;SDS011;17110;52.602;12.998;2023-04-06T06:26:04;10.23;;;7.57;;
30299;SDS011;17110;52.602;12.998;2023-04-06T06:28:30;22.60;;;15.13;;
30299;SDS011;17110;52.602;12.998;2023-04-06T06:30:56;12.30;;;9.63;;
30299;SDS011;17110;52.602;12.998;2023-04-06T06:33:21;8.57;;;7.67;;
30299;SDS011;17110;52.602;12.998;2023-04-06T06:35:47;9.13;;;7.20;;
30299;SDS011;17110;52.602;12.998;2023-04-06T06:38:14;10.13;;;6.95;;
30299;SDS011;17110;52.602;12.998;2023-04-06T06:40:40;6.77;;;6.07;;
30299;SDS011;17110;52.602;12.998;2023-04-06T06:43:09;6.43;;;5.70;;
30299;SDS011;17110;52.602;12.998;2023-04-06T06:45:34;9.02;;;5.80;;
30299;SDS011;17110;52.602;12.998;2023-04-06T06:48:00;8.13;;;5.80;;
30299;SDS011;17110;52.602;12.998;2023-04-06T06:50:26;17.23;;;6.40;;
30299;SDS011;17110;52.602;12.998;2023-04-06T06:52:52;7.70;;;5.75;;
30299;SDS011;17110;52.602;12.998;2023-04-06T06:55:17;9.40;;;5.70;;
30299;SDS011;17110;52.602;12.998;2023-04-06T06:57:44;9.00;;;5.80;;
30299;SDS011;17110;52.602;12.998;2023-04-06T07:00:11;7.53;;;5.60;;
30299;SDS011;17110;52.602;12.998;2023-04-06T07:02:38;24.13;;;6.30;;
30299;SDS011;17110;52.602;12.998;2023-04-06T07:05:04;7.85;;;5.40;;
30299;SDS011;17110;52.602;12.998;2023-04-06T07:07:31;12.02;;;5.55;;
30299;SDS011;17110;52.602;12.998;2023-04-06T07:09:57;6.82;;;4.90;;
30299;SDS011;17110;52.602;12.998;2023-04-06T07:12:23;6.53;;;4.90;;
30299;SDS011;17110;52.602;12.998;2023-04-06T07:14:48;9.18;;;4.93;;
30299;SDS011;17110;52.602;12.998;2023-04-06T07:17:14;9.00;;;4.73;;
30299;SDS011;17110;52.602;12.998;2023-04-06T07:19:39;6.80;;;4.38;;
30299;SDS011;17110;52.602;12.998;2023-04-06T07:22:05;7.20;;;4.80;;
30299;SDS011;17110;52.602;12.998;2023-04-06T07:24:31;5.97;;;4.22;;
30299;SDS011;17110;52.602;12.998;2023-04-06T07:26:58;8.27;;;4.40;;
30299;SDS011;17110;52.602;12.998;2023-04-06T07:29:25;5.60;;;4.75;;
30299;SDS011;17110;52.602;12.998;2023-04-06T07:31:52;8.60;;;4.73;;
30299;SDS011;17110;52.602;12.998;2023-04-06T07:34:17;6.53;;;3.88;;
30299;SDS011;17110;52.602;12.998;2023-04-06T07:36:43;7.07;;;4.23;;
30299;SDS011;17110;52.602;12.998;2023-04-06T07:39:09;8.95;;;4.65;;
30299;SDS011;17110;52.602;12.998;2023-04-06T07:41:35;6.60;;;4.00;;
30299;SDS011;17110;52.602;12.998;2023-04-06T07:44:01;5.45;;;4.20;;
30299;SDS011;17110;52.602;12.998;2023-04-06T07:46:27;8.27;;;4.40;;
30299;SDS011;17110;52.602;12.998;2023-04-06T07:48:52;5.30;;;3.90;;
30299;SDS011;17110;52.602;12.998;2023-04-06T07:51:18;7.13;;;4.30;;
30299;SDS011;17110;52.602;12.998;2023-04-06T07:53:44;5.00;;;3.53;;
30299;SDS011;17110;52.602;12.998;2023-04-06T07:56:10;9.70;;;4.18;;
30299;SDS011;17110;52.602;12.998;2023-04-06T07:58:36;4.97;;;3.45;;
30299;SDS011;17110;52.602;12.998;2023-04-06T08:01:02;8.80;;;3.42;;
30299;SDS011;17110;52.602;12.998;2023-04-06T08:03:28;5.22;;;3.00;;
30299;SDS011;17110;52.602;12.998;2023-04-06T08:05:54;5.30;;;3.30;;
30299;SDS011;17110;52.602;12.998;2023-04-06T08:08:20;5.95;;;3.72;;
30299;SDS011;17110;52.602;12.998;2023-04-06T08:10:47;13.93;;;3.95;;
30299;SDS011;17110;52.602;12.998;2023-04-06T08:13:13;4.32;;;2.90;;
30299;SDS011;17110;52.602;12.998;2023-04-06T08:15:39;10.57;;;3.47;;
30299;SDS011;17110;52.602;12.998;2023-04-06T08:18:05;6.18;;;3.40;;
30299;SDS011;17110;52.602;12.998;2023-04-06T08:20:30;5.90;;;3.23;;
30299;SDS011;17110;52.602;12.998;2023-04-06T08:22:56;4.65;;;3.20;;
30299;SDS011;17110;52.602;12.998;2023-04-06T08:25:21;5.00;;;3.13;;
30299;SDS011;17110;52.602;12.998;2023-04-06T08:27:47;5.33;;;2.97;;
30299;SDS011;17110;52.602;12.998;2023-04-06T08:30:13;4.57;;;3.25;;
30299;SDS011;17110;52.602;12.998;2023-04-06T08:32:40;4.90;;;3.17;;
30299;SDS011;17110;52.602;12.998;2023-04-06T08:35:07;4.55;;;2.72;;
30299;SDS011;17110;52.602;12.998;2023-04-06T08:37:33;4.15;;;2.80;;
30299;SDS011;17110;52.602;12.998;2023-04-06T08:39:58;3.20;;;2.40;;
30299;SDS011;17110;52.602;12.998;2023-04-06T08:42:24;4.15;;;2.50;;
30299;SDS011;17110;52.602;12.998;2023-04-06T08:44:51;4.00;;;2.42;;
30299;SDS011;17110;52.602;12.998;2023-04-06T08:47:17;3.13;;;1.90;;
30299;SDS011;17110;52.602;12.998;2023-04-06T08:49:43;4.07;;;2.97;;
30299;SDS011;17110;52.602;12.998;2023-04-06T08:52:10;4.35;;;2.72;;
30299;SDS011;17110;52.602;12.998;2023-04-06T08:54:36;5.15;;;2.63;;
30299;SDS011;17110;52.602;12.998;2023-04-06T08:57:02;3.83;;;2.35;;
30299;SDS011;17110;52.602;12.998;2023-04-06T08:59:29;4.97;;;2.53;;
30299;SDS011;17110;52.602;12.998;2023-04-06T09:01:55;5.15;;;2.75;;
30299;SDS011;17110;52.602;12.998;2023-04-06T09:04:21;43.92;;;6.40;;
30299;SDS011;17110;52.602;12.998;2023-04-06T09:06:47;4.75;;;2.60;;
30299;SDS011;17110;52.602;12.998;2023-04-06T09:09:12;7.10;;;2.60;;
30299;SDS011;17110;52.602;12.998;2023-04-06T09:11:42;22.52;;;3.78;;
30299;SDS011;17110;52.602;12.998;2023-04-06T09:14:15;3.10;;;2.42;;
30299;SDS011;17110;52.602;12.998;2023-04-06T09:16:42;4.05;;;2.75;;
30299;SDS011;17110;52.602;12.998;2023-04-06T09:19:10;4.63;;;3.08;;
30299;SDS011;17110;52.602;12.998;2023-04-06T09:21:36;8.18;;;2.83;;
30299;SDS011;17110;52.602;12.998;2023-04-06T09:24:02;3.25;;;2.67;;
30299;SDS011;17110;52.602;12.998;2023-04-06T09:26:28;5.72;;;3.25;;
30299;SDS011;17110;52.602;12.998;2023-04-06T09:28:55;4.20;;;2.97;;
30299;SDS011;17110;52.602;12.998;2023-04-06T09:31:25;13.50;;;3.50;;
30299;SDS011;17110;52.602;12.998;2023-04-06T09:33:52;3.97;;;2.88;;
30299;SDS011;17110;52.602;12.998;2023-04-06T09:36:19;3.50;;;2.75;;
30299;SDS011;17110;52.602;12.998;2023-04-06T09:38:53;8.10;;;3.10;;
30299;SDS011;17110;52.602;12.998;2023-04-06T09:41:26;4.73;;;3.50;;
30299;SDS011;17110;52.602;12.998;2023-04-06T09:44:14;8.48;;;3.55;;
30299;SDS011;17110;52.602;12.998;2023-04-06T09:49:05;4.45;;;2.90;;
30299;SDS011;17110;52.602;12.998;2023-04-06T09:51:36;4.33;;;3.00;;
30299;SDS011;17110;52.602;12.998;2023-04-06T09:54:02;3.78;;;3.22;;
30299;SDS011;17110;52.602;12.998;2023-04-06T09:59:17;3.30;;;2.92;;
30299;SDS011;17110;52.602;12.998;2023-04-06T10:01:44;12.57;;;3.72;;
30299;SDS011;17110;52.602;12.998;2023-04-06T10:04:21;12.23;;;3.83;;
30299;SDS011;17110;52.602;12.998;2023-04-06T10:06:51;4.15;;;2.90;;
30299;SDS011;17110;52.602;12.998;2023-04-06T10:09:18;5.30;;;2.95;;
30299;SDS011;17110;52.602;12.998;2023-04-06T10:11:44;4.57;;;2.95;;
30299;SDS011;17110;52.602;12.998;2023-04-06T10:14:10;3.45;;;2.78;;
30299;SDS011;17110;52.602;12.998;2023-04-06T10:16:36;6.63;;;3.40;;
30299;SDS011;17110;52.602;12.998;2023-04-06T10:19:10;3.90;;;3.00;;
30299;SDS011;17110;52.602;12.998;2023-04-06T10:21:38;4.93;;;3.23;;
30299;SDS011;17110;52.602;12.998;2023-04-06T10:24:07;3.17;;;2.78;;
30299;SDS011;17110;52.602;12.998;2023-04-06T10:26:35;4.30;;;2.97;;
30299;SDS011;17110;52.602;12.998;2023-04-06T10:29:04;22.67;;;4.88;;
30299;SDS011;17110;52.602;12.998;2023-04-06T10:31:30;4.35;;;2.70;;
30299;SDS011;17110;52.602;12.998;2023-04-06T10:33:57;6.47;;;3.15;;
30299;SDS011;17110;52.602;12.998;2023-04-06T10:36:27;4.68;;;3.20;;
30299;SDS011;17110;52.602;12.998;2023-04-06T10:38:54;4.45;;;3.17;;
30299;SDS011;17110;52.602;12.998;2023-04-06T10:41:20;7.25;;;3.20;;
30299;SDS011;17110;52.602;12.998;2023-04-06T10:43:54;5.00;;;3.08;;
30299;SDS011;17110;52.602;12.998;2023-04-06T10:46:24;59.08;;;7.97;;
30299;SDS011;17110;52.602;12.998;2023-04-06T10:48:51;8.50;;;3.33;;
30299;SDS011;17110;52.602;12.998;2023-04-06T10:51:17;6.07;;;3.17;;
30299;SDS011;17110;52.602;12.998;2023-04-06T10:53:45;31.55;;;5.30;;
30299;SDS011;17110;52.602;12.998;2023-04-06T10:56:15;5.25;;;3.00;;
30299;SDS011;17110;52.602;12.998;2023-04-06T10:58:44;6.45;;;3.20;;
30299;SDS011;17110;52.602;12.998;2023-04-06T11:01:17;4.57;;;2.83;;
30299;SDS011;17110;52.602;12.998;2023-04-06T11:03:44;4.30;;;2.85;;
30299;SDS011;17110;52.602;12.998;2023-04-06T11:06:10;5.55;;;3.20;;
30299;SDS011;17110;52.602;12.998;2023-04-06T11:08:36;78.82;;;10.27;;
30299;SDS011;17110;52.602;12.998;2023-04-06T11:16:04;4.18;;;3.10;;
30299;SDS011;17110;52.602;12.998;2023-04-06T11:18:30;4.50;;;3.42;;
30299;SDS011;17110;52.602;12.998;2023-04-06T11:20:57;19.83;;;5.03;;
30299;SDS011;17110;52.602;12.998;2023-04-06T11:23:24;3.33;;;2.92;;
30299;SDS011;17110;52.602;12.998;2023-04-06T11:25:53;4.82;;;3.20;;
30299;SDS011;17110;52.602;12.998;2023-04-06T11:28:19;5.30;;;3.33;;
30299;SDS011;17110;52.602;12.998;2023-04-06T11:30:46;4.72;;;3.30;;
30299;SDS011;17110;52.602;12.998;2023-04-06T11:33:19;5.28;;;2.85;;
30299;SDS011;17110;52.602;12.998;2023-04-06T11:35:46;8.60;;;3.75;;
30299;SDS011;17110;52.602;12.998;2023-04-06T11:38:12;6.13;;;3.85;;
30299;SDS011;17110;52.602;12.998;2023-04-06T11:40:38;4.05;;;3.20;;
30299;SDS011;17110;52.602;12.998;2023-04-06T11:43:04;7.40;;;3.97;;
30299;SDS011;17110;52.602;12.998;2023-04-06T11:45:41;6.43;;;3.50;;
30299;SDS011;17110;52.602;12.998;2023-04-06T11:48:16;8.18;;;3.63;;
30299;SDS011;17110;52.602;12.998;2023-04-06T11:50:43;4.15;;;3.38;;
30299;SDS011;17110;52.602;12.998;2023-04-06T11:53:11;4.95;;;3.85;;
30299;SDS011;17110;52.602;12.998;2023-04-06T11:55:37;3.92;;;3.50;;
30299;SDS011;17110;52.602;12.998;2023-04-06T11:58:04;5.45;;;3.70;;
30299;SDS011;17110;52.602;12.998;2023-04-06T12:00:31;4.17;;;3.20;;
30299;SDS011;17110;52.602;12.998;2023-04-06T12:02:59;39.28;;;5.88;;
30299;SDS011;17110;52.602;12.998;2023-04-06T12:05:26;5.18;;;3.65;;
30299;SDS011;17110;52.602;12.998;2023-04-06T12:07:52;4.57;;;3.58;;
30299;SDS011;17110;52.602;12.998;2023-04-06T12:10:19;4.25;;;3.78;;
30299;SDS011;17110;52.602;12.998;2023-04-06T12:12:45;13.57;;;4.00;;
30299;SDS011;17110;52.602;12.998;2023-04-06T12:15:11;4.10;;;3.53;;
30299;SDS011;17110;52.602;12.998;2023-04-06T12:17:37;4.80;;;3.10;;
30299;SDS011;17110;52.602;12.998;2023-04-06T12:20:03;4.50;;;3.50;;
30299;SDS011;17110;52.602;12.998;2023-04-06T12:22:29;3.97;;;3.30;;
30299;SDS011;17110;52.602;12.998;2023-04-06T12:24:55;6.43;;;3.22;;
30299;SDS011;17110;52.602;12.998;2023-04-06T12:27:24;4.82;;;3.35;;
30299;SDS011;17110;52.602;12.998;2023-04-06T12:29:50;5.75;;;3.50;;
30299;SDS011;17110;52.602;12.998;2023-04-06T12:32:16;11.40;;;4.03;;
30299;SDS011;17110;52.602;12.998;2023-04-06T12:34:42;8.02;;;3.50;;
30299;SDS011;17110;52.602;12.998;2023-04-06T12:37:08;4.28;;;3.22;;
30299;SDS011;17110;52.602;12.998;2023-04-06T12:39:34;3.42;;;3.13;;
30299;SDS011;17110;52.602;12.998;2023-04-06T12:42:00;4.18;;;3.53;;
30299;SDS011;17110;52.602;12.998;2023-04-06T12:44:27;15.95;;;4.40;;
30299;SDS011;17110;52.602;12.998;2023-04-06T12:46:53;4.90;;;3.45;;
30299;SDS011;17110;52.602;12.998;2023-04-06T12:49:20;4.32;;;3.38;;
30299;SDS011;17110;52.602;12.998;2023-04-06T12:51:47;12.70;;;4.10;;
30299;SDS011;17110;52.602;12.998;2023-04-06T12:54:16;5.63;;;3.47;;
30299;SDS011;17110;52.602;12.998;2023-04-06T12:56:43;46.40;;;6.57;;
30299;SDS011;17110;52.602;12.998;2023-04-06T12:59:09;5.25;;;3.30;;
30299;SDS011;17110;52.602;12.998;2023-04-06T13:01:38;3.72;;;3.28;;
30299;SDS011;17110;52.602;12.998;2023-04-06T13:04:12;4.07;;;3.00;;
30299;SDS011;17110;52.602;12.998;2023-04-06T13:06:39;11.52;;;4.10;;
30299;SDS011;17110;52.602;12.998;2023-04-06T13:09:05;4.32;;;3.15;;
30299;SDS011;17110;52.602;12.998;2023-04-06T13:11:32;5.43;;;3.45;;
30299;SDS011;17110;52.602;12.998;2023-04-06T13:13:58;4.68;;;3.65;;
30299;SDS011;17110;52.602;12.998;2023-04-06T13:16:25;5.90;;;3.30;;
30299;SDS011;17110;52.602;12.998;2023-04-06T13:18:51;3.55;;;3.13;;
30299;SDS011;17110;52.602;12.998;2023-04-06T13:21:17;5.05;;;3.65;;
30299;SDS011;17110;52.602;12.998;2023-04-06T13:23:45;3.97;;;3.10;;
30299;SDS011;17110;52.602;12.998;2023-04-06T13:26:11;6.37;;;3.13;;
30299;SDS011;17110;52.602;12.998;2023-04-06T13:28:40;5.75;;;3.22;;
30299;SDS011;17110;52.602;12.998;2023-04-06T13:31:06;14.68;;;4.50;;
30299;SDS011;17110;52.602;12.998;2023-04-06T13:33:33;3.83;;;3.35;;
30299;SDS011;17110;52.602;12.998;2023-04-06T13:36:02;40.45;;;6.38;;
30299;SDS011;17110;52.602;12.998;2023-04-06T13:38:29;4.45;;;3.22;;
30299;SDS011;17110;52.602;12.998;2023-04-06T13:40:55;3.40;;;3.10;;
30299;SDS011;17110;52.602;12.998;2023-04-06T13:43:21;3.90;;;3.10;;
30299;SDS011;17110;52.602;12.998;2023-04-06T13:45:49;4.53;;;2.72;;
30299;SDS011;17110;52.602;12.998;2023-04-06T13:48:16;4.55;;;3.22;;
30299;SDS011;17110;52.602;12.998;2023-04-06T13:50:45;5.18;;;3.53;;
30299;SDS011;17110;52.602;12.998;2023-04-06T13:53:11;9.70;;;3.50;;
30299;SDS011;17110;52.602;12.998;2023-04-06T13:55:37;4.47;;;3.33;;
30299;SDS011;17110;52.602;12.998;2023-04-06T13:58:03;17.83;;;4.20;;
30299;SDS011;17110;52.602;12.998;2023-04-06T14:00:32;7.07;;;3.40;;
30299;SDS011;17110;52.602;12.998;2023-04-06T14:02:58;5.03;;;3.50;;
30299;SDS011;17110;52.602;12.998;2023-04-06T14:05:30;4.13;;;3.60;;
30299;SDS011;17110;52.602;12.998;2023-04-06T14:07:56;4.90;;;3.30;;
30299;SDS011;17110;52.602;12.998;2023-04-06T14:10:22;9.65;;;3.67;;
30299;SDS011;17110;52.602;12.998;2023-04-06T14:12:51;10.90;;;3.80;;
30299;SDS011;17110;52.602;12.998;2023-04-06T14:15:17;5.40;;;3.47;;
30299;SDS011;17110;52.602;12.998;2023-04-06T14:17:44;10.10;;;3.60;;
30299;SDS011;17110;52.602;12.998;2023-04-06T14:20:12;5.00;;;2.90;;
30299;SDS011;17110;52.602;12.998;2023-04-06T14:22:40;4.05;;;3.10;;
30299;SDS011;17110;52.602;12.998;2023-04-06T14:25:07;9.60;;;3.63;;
30299;SDS011;17110;52.602;12.998;2023-04-06T14:27:33;4.90;;;3.22;;
30299;SDS011;17110;52.602;12.998;2023-04-06T14:29:59;4.40;;;3.20;;
30299;SDS011;17110;52.602;12.998;2023-04-06T14:32:25;5.03;;;3.10;;
30299;SDS011;17110;52.602;12.998;2023-04-06T14:34:51;4.43;;;3.13;;
30299;SDS011;17110;52.602;12.998;2023-04-06T14:37:17;4.32;;;2.97;;